Time;durP1;ratioP1;P1;durP2;ratioP2;P2;SDS_P1;SDS_P2;PMS_P1;PMS_P2;Temp;Humidity;BMP_temperature;BMP_pressure;BME280_temperature;BME280_humidity;BME280_pressure;Samples;Min_cycle;Max_cycle;Signal;HPM_P1;HPM_P2
2022/07/21 00:01:29;;;;;;;9.30;7.30;;;;;;;-145.18;100.00;46660.41;5052846;28;20063;-73
2022/07/21 00:03:54;;;;;;;9.73;7.60;;;;;;;-145.18;100.00;46660.41;5047420;28;20372;-73
2022/07/21 00:06:19;;;;;;;12.23;8.17;;;;;;;-145.18;100.00;46660.41;5032557;28;20100;-73
2022/07/21 00:08:45;;;;;;;12.13;9.23;;;;;;;-145.18;100.00;46660.41;5032860;28;20033;-72
2022/07/21 00:11:11;;;;;;;10.27;7.70;;;;;;;-145.18;100.00;46660.41;5032837;28;20113;-73
2022/07/21 00:13:36;;;;;;;13.73;8.73;;;;;;;-145.18;100.00;46660.41;5032757;28;20041;-72
2022/07/21 00:16:02;;;;;;;11.20;8.50;;;;;;;-145.18;100.00;46660.41;5015242;28;20042;-73
2022/07/21 00:18:30;;;;;;;10.83;9.20;;;;;;;-145.18;100.00;46660.41;5014327;28;20143;-72
2022/07/21 00:20:56;;;;;;;11.33;9.00;;;;;;;-145.18;100.00;46660.41;5031819;28;20042;-73
2022/07/21 00:23:23;;;;;;;12.87;9.00;;;;;;;-145.18;100.00;46660.41;5032542;28;20053;-73
2022/07/21 00:25:50;;;;;;;12.57;8.63;;;;;;;-145.18;100.00;46660.41;5032861;28;20041;-72
2022/07/21 00:28:16;;;;;;;11.90;9.03;;;;;;;-145.18;100.00;46660.41;5032359;28;20413;-72
2022/07/21 00:30:41;;;;;;;10.33;8.57;;;;;;;-145.18;100.00;46660.41;5032622;28;20033;-73
2022/07/21 00:33:07;;;;;;;9.60;8.60;;;;;;;-145.18;100.00;46660.41;5032516;28;20120;-73
2022/07/21 00:35:32;;;;;;;13.57;9.10;;;;;;;-145.18;100.00;46660.41;5032375;28;20371;-72
2022/07/21 00:37:58;;;;;;;14.57;9.57;;;;;;;-145.18;100.00;46660.41;5031992;28;20034;-73
2022/07/21 00:40:23;;;;;;;10.47;9.37;;;;;;;-145.18;100.00;46660.41;5023882;28;20441;-73
2022/07/21 00:42:49;;;;;;;10.67;9.30;;;;;;;-145.18;100.00;46660.41;5032280;28;20124;-72
2022/07/21 00:45:14;;;;;;;12.23;9.93;;;;;;;-145.18;100.00;46660.41;5032392;28;20077;-72
2022/07/21 00:47:40;;;;;;;11.23;9.43;;;;;;;-145.18;100.00;46660.41;5031902;28;20049;-72
2022/07/21 00:50:12;;;;;;;12.43;9.63;;;;;;;-145.18;100.00;46658.44;5032573;28;20095;-72
2022/07/21 00:52:38;;;;;;;13.73;10.50;;;;;;;-145.18;100.00;46660.41;5031573;28;20498;-72
2022/07/21 00:55:05;;;;;;;15.00;10.03;;;;;;;-145.18;100.00;46660.41;5032646;28;20033;-72
2022/07/21 00:57:31;;;;;;;11.40;10.27;;;;;;;-145.18;100.00;46654.53;5031285;28;20091;-72
2022/07/21 00:59:56;;;;;;;12.37;10.23;;;;;;;-145.18;100.00;46654.53;5032271;28;20409;-72
2022/07/21 01:02:22;;;;;;;14.50;11.20;;;;;;;-145.18;100.00;46660.41;5034412;28;20048;-72
2022/07/21 01:04:48;;;;;;;14.63;10.53;;;;;;;-145.18;100.00;46658.44;5052342;28;20037;-72
2022/07/21 01:07:14;;;;;;;15.10;10.57;;;;;;;-145.18;100.00;46654.53;5051761;28;20401;-72
2022/07/21 01:09:39;;;;;;;11.20;9.87;;;;;;;-145.18;100.00;46660.41;5052013;28;20025;-73
2022/07/21 01:12:06;;;;;;;15.50;10.63;;;;;;;-145.18;100.00;46652.59;5051661;28;20067;-72
2022/07/21 01:14:32;;;;;;;17.27;11.70;;;;;;;-145.18;100.00;46656.50;5051682;28;20386;-73
2022/07/21 01:16:58;;;;;;;15.57;11.67;;;;;;;-145.18;100.00;46656.50;5051465;28;20040;-73
2022/07/21 01:19:23;;;;;;;16.20;12.07;;;;;;;-145.18;100.00;46656.50;5051543;28;20049;-72
2022/07/21 01:21:50;;;;;;;14.77;11.23;;;;;;;-145.18;100.00;46652.59;5051331;28;20057;-72
2022/07/21 01:24:15;;;;;;;14.07;11.37;;;;;;;-145.18;100.00;46658.44;5051902;28;20037;-73
2022/07/21 01:26:43;;;;;;;11.50;10.17;;;;;;;-145.18;100.00;46654.53;5033185;28;20040;-73
2022/07/21 01:29:09;;;;;;;19.40;11.23;;;;;;;-145.18;100.00;46652.59;5051647;28;20079;-73
2022/07/21 01:31:35;;;;;;;13.37;11.07;;;;;;;-145.18;100.00;46652.59;5050437;28;20523;-73
2022/07/21 01:34:00;;;;;;;17.00;10.73;;;;;;;-145.18;100.00;46654.53;5051541;28;20029;-72
2022/07/21 01:36:26;;;;;;;16.27;12.53;;;;;;;-145.18;100.00;46654.53;5050875;28;20460;-72
2022/07/21 01:41:35;;;;;;;17.30;12.97;;;;;;;-145.18;100.00;46652.59;5050910;28;20040;-72
2022/07/21 01:44:04;;;;;;;22.43;13.40;;;;;;;-145.18;100.00;46650.63;5051486;28;20037;-72
2022/07/21 01:46:31;;;;;;;16.07;12.20;;;;;;;-145.18;100.00;46652.59;5050638;28;20033;-72
2022/07/21 01:48:57;;;;;;;15.37;12.63;;;;;;;-145.18;100.00;46656.50;5051169;28;20032;-73
2022/07/21 01:51:23;;;;;;;16.63;12.27;;;;;;;-145.18;100.00;46650.63;5051080;28;20025;-73
2022/07/21 01:53:49;;;;;;;16.10;12.10;;;;;;;-145.18;100.00;46654.53;5050725;28;20029;-72
2022/07/21 01:56:14;;;;;;;15.37;12.37;;;;;;;-145.18;100.00;46652.59;5051219;28;20086;-72
2022/07/21 01:58:39;;;;;;;15.63;12.73;;;;;;;-145.18;100.00;46652.59;5050171;28;20168;-72
2022/07/21 02:03:40;;;;;;;17.02;13.55;;;;;;;-145.18;100.00;46642.81;4931844;22;20053;-71
2022/07/21 02:06:07;;;;;;;16.07;13.00;;;;;;;-145.18;100.00;46650.63;5048566;28;20045;-71
2022/07/21 02:08:33;;;;;;;15.07;12.83;;;;;;;-145.18;100.00;46644.78;5049960;28;20503;-72
2022/07/21 02:10:58;;;;;;;16.07;13.83;;;;;;;-145.18;100.00;46640.88;5037576;28;20061;-73
2022/07/21 02:13:24;;;;;;;17.53;13.10;;;;;;;-145.18;100.00;46640.88;5030488;28;20033;-72
2022/07/21 02:15:49;;;;;;;16.47;13.17;;;;;;;-145.18;100.00;46642.81;5030784;28;20037;-72
2022/07/21 02:18:15;;;;;;;20.23;13.73;;;;;;;-145.18;100.00;46642.81;5030633;28;20033;-72
2022/07/21 02:20:40;;;;;;;21.03;14.30;;;;;;;-145.18;100.00;46650.63;5030824;28;20037;-73
2022/07/21 02:23:06;;;;;;;17.57;13.73;;;;;;;-145.18;100.00;46642.81;5030232;28;20084;-73
2022/07/21 02:25:31;;;;;;;16.70;14.63;;;;;;;-145.18;100.00;46642.81;5031037;28;20033;-73
2022/07/21 02:27:56;;;;;;;17.43;13.60;;;;;;;-145.18;100.00;46640.88;5043935;28;20071;-73
2022/07/21 02:30:22;;;;;;;18.27;13.80;;;;;;;-145.18;100.00;46638.91;5050587;28;20040;-73
2022/07/21 02:32:47;;;;;;;18.73;15.43;;;;;;;-145.18;100.00;46638.91;5049868;28;20053;-73
2022/07/21 02:35:13;;;;;;;17.43;14.30;;;;;;;-145.18;100.00;46642.81;5050067;28;20190;-73
2022/07/21 02:37:38;;;;;;;20.80;16.47;;;;;;;-145.18;100.00;46642.81;5050109;28;20060;-72
2022/07/21 02:40:04;;;;;;;19.10;15.73;;;;;;;-145.18;100.00;46642.81;5034392;28;20044;-72
2022/07/21 02:42:29;;;;;;;23.30;17.10;;;;;;;-145.18;100.00;46636.94;5027995;28;20133;-72
2022/07/21 02:44:55;;;;;;;19.47;16.37;;;;;;;-145.18;100.00;46636.94;5030158;28;20088;-73
2022/07/21 02:47:20;;;;;;;20.77;15.27;;;;;;;-145.18;100.00;46636.94;5030293;28;20034;-73
2022/07/21 02:49:47;;;;;;;19.00;15.77;;;;;;;-145.18;100.00;46636.94;5030378;28;20548;-73
2022/07/21 02:52:12;;;;;;;24.57;17.10;;;;;;;-145.18;100.00;46636.94;5030062;28;20390;-73
2022/07/21 02:54:38;;;;;;;28.37;17.07;;;;;;;-145.18;100.00;46635.00;5029195;28;20021;-73
2022/07/21 02:57:03;;;;;;;22.57;17.47;;;;;;;-145.18;100.00;46635.00;5029825;28;20025;-72
2022/07/21 02:59:28;;;;;;;24.30;17.80;;;;;;;-145.18;100.00;46636.94;5028946;28;20394;-73
2022/07/21 03:01:54;;;;;;;20.77;17.60;;;;;;;-145.18;100.00;46636.94;5028894;28;20030;-72
2022/07/21 03:04:19;;;;;;;20.27;17.33;;;;;;;-145.18;100.00;46633.06;5030301;28;20025;-72
2022/07/21 03:06:45;;;;;;;21.20;18.37;;;;;;;-145.18;100.00;46635.00;5029578;28;20041;-72
2022/07/21 03:09:10;;;;;;;21.07;17.10;;;;;;;-145.18;100.00;46635.00;5030197;28;20078;-73
2022/07/21 03:11:36;;;;;;;20.23;17.47;;;;;;;-145.18;100.00;46633.06;5030162;28;20033;-72
2022/07/21 03:14:01;;;;;;;24.40;18.77;;;;;;;-145.18;100.00;46636.94;5029741;28;20025;-73
2022/07/21 03:16:27;;;;;;;21.10;17.80;;;;;;;-145.18;100.00;46635.00;5030031;28;20029;-73
2022/07/21 03:18:52;;;;;;;23.97;18.33;;;;;;;-145.18;100.00;46635.00;5028113;28;20045;-72
2022/07/21 03:21:18;;;;;;;21.93;17.87;;;;;;;-145.18;100.00;46631.09;5030008;28;20037;-72
2022/07/21 03:23:45;;;;;;;22.77;18.63;;;;;;;-145.18;100.00;46636.94;5029309;28;20029;-73
2022/07/21 03:26:11;;;;;;;24.47;18.87;;;;;;;-145.18;100.00;46635.00;5030236;28;20034;-72
2022/07/21 03:28:37;;;;;;;24.73;18.53;;;;;;;-145.18;100.00;46636.94;5029820;28;20072;-72
2022/07/21 03:31:02;;;;;;;26.47;19.47;;;;;;;-145.18;100.00;46633.06;5039445;28;20073;-72
2022/07/21 03:33:27;;;;;;;23.60;18.47;;;;;;;-145.18;100.00;46635.00;5049588;28;20029;-72
2022/07/21 03:35:53;;;;;;;25.60;19.47;;;;;;;-145.18;100.00;46635.00;5049636;28;20044;-73
2022/07/21 03:38:18;;;;;;;24.03;19.00;;;;;;;-145.18;100.00;46633.06;5049109;28;20033;-73
2022/07/21 03:40:44;;;;;;;26.00;19.03;;;;;;;-145.18;100.00;46636.94;5049663;28;20040;-72
2022/07/21 03:43:09;;;;;;;24.33;19.50;;;;;;;-145.18;100.00;46633.06;5049266;28;20029;-73
2022/07/21 03:45:35;;;;;;;24.60;19.53;;;;;;;-145.18;100.00;46636.94;5049752;28;20036;-73
2022/07/21 03:48:04;;;;;;;27.40;20.47;;;;;;;-145.18;100.00;46635.00;5049333;28;20108;-72
2022/07/21 03:50:30;;;;;;;25.40;19.87;;;;;;;-145.18;100.00;46635.00;5049113;28;20033;-72
2022/07/21 03:52:56;;;;;;;23.37;19.80;;;;;;;-145.18;100.00;46636.94;5049425;28;20174;-72
2022/07/21 03:55:22;;;;;;;25.53;20.77;;;;;;;-145.18;100.00;46633.06;5052232;28;20044;-73
2022/07/21 03:57:50;;;;;;;26.13;21.20;;;;;;;-145.18;100.00;46633.06;5051675;28;20044;-72
2022/07/21 04:00:19;;;;;;;28.63;21.30;;;;;;;-145.18;100.00;46635.00;5053517;28;20028;-72
2022/07/21 04:02:47;;;;;;;30.67;19.77;;;;;;;-145.18;100.00;46636.94;5052319;28;20394;-73
2022/07/21 04:05:14;;;;;;;26.07;19.17;;;;;;;-145.18;100.00;46640.88;5050671;28;20047;-72
2022/07/21 04:07:41;;;;;;;26.03;18.33;;;;;;;-145.18;100.00;46631.09;5051975;28;20103;-73
2022/07/21 04:10:09;;;;;;;29.07;18.37;;;;;;;-145.18;100.00;46635.00;5051522;28;20036;-72
2022/07/21 04:12:34;;;;;;;27.17;19.07;;;;;;;-145.18;100.00;46636.94;5032820;28;20033;-72
2022/07/21 04:14:59;;;;;;;27.70;19.77;;;;;;;-145.18;100.00;46633.06;5042937;28;20512;-72
2022/07/21 04:17:25;;;;;;;24.00;16.63;;;;;;;-145.18;100.00;46636.94;5051021;28;20033;-73
2022/07/21 04:19:50;;;;;;;24.20;17.57;;;;;;;-145.18;100.00;46635.00;5052235;28;20632;-72
2022/07/21 04:22:15;;;;;;;23.87;16.20;;;;;;;-145.18;100.00;46636.94;5051463;28;20033;-72
2022/07/21 04:24:41;;;;;;;29.80;16.80;;;;;;;-145.18;100.00;46640.88;5052615;28;20127;-72
2022/07/21 04:27:06;;;;;;;30.67;16.30;;;;;;;-145.18;100.00;46638.91;5051600;28;20037;-72
2022/07/21 04:29:32;;;;;;;23.80;17.03;;;;;;;-145.18;100.00;46638.91;5051968;28;20090;-72
2022/07/21 04:31:57;;;;;;;23.70;17.23;;;;;;;-145.18;100.00;46638.91;5048666;28;20029;-72
2022/07/21 04:34:22;;;;;;;27.17;17.27;;;;;;;-145.18;100.00;46635.00;5047027;28;20032;-73
2022/07/21 04:36:48;;;;;;;24.07;16.43;;;;;;;-145.18;100.00;46636.94;5035154;28;20069;-72
2022/07/21 04:39:13;;;;;;;26.90;17.27;;;;;;;-145.18;100.00;46636.94;5032368;28;20489;-72
2022/07/21 04:41:38;;;;;;;25.23;16.17;;;;;;;-145.18;100.00;46636.94;5032448;28;20037;-72
2022/07/21 04:44:04;;;;;;;28.53;18.13;;;;;;;-145.18;100.00;46635.00;5032072;28;20033;-72
2022/07/21 04:46:29;;;;;;;22.80;16.83;;;;;;;-145.18;100.00;46636.94;5032499;28;20034;-72
2022/07/21 04:48:55;;;;;;;24.53;16.87;;;;;;;-145.18;100.00;46636.94;5031941;28;20547;-72
2022/07/21 04:51:20;;;;;;;28.10;17.13;;;;;;;-145.18;100.00;46636.94;5032655;28;20025;-72
2022/07/21 04:53:45;;;;;;;24.93;17.50;;;;;;;-145.18;100.00;46638.91;5049338;28;20037;-72
2022/07/21 04:56:11;;;;;;;27.10;17.53;;;;;;;-145.18;100.00;46638.91;5052355;28;20408;-72
2022/07/21 04:58:36;;;;;;;25.83;18.27;;;;;;;-145.18;100.00;46640.88;5040547;28;20057;-72
2022/07/21 05:01:02;;;;;;;28.97;19.03;;;;;;;-145.18;100.00;46638.91;5041887;28;20531;-72
2022/07/21 05:03:27;;;;;;;29.37;17.60;;;;;;;-145.18;100.00;46640.88;5039189;28;20045;-72
2022/07/21 05:05:52;;;;;;;29.30;19.27;;;;;;;-145.18;100.00;46636.94;5045036;28;20036;-72
2022/07/21 05:08:18;;;;;;;29.33;18.73;;;;;;;-145.18;100.00;46636.94;5045758;28;20529;-73
2022/07/21 05:10:43;;;;;;;29.03;18.93;;;;;;;-145.18;100.00;46636.94;5051108;28;20037;-73
2022/07/21 05:13:08;;;;;;;33.23;19.80;;;;;;;-145.18;100.00;46638.91;5051306;28;20225;-72
2022/07/21 05:15:34;;;;;;;37.57;20.40;;;;;;;-145.18;100.00;46640.88;5051468;28;20036;-72
2022/07/21 05:17:59;;;;;;;31.77;19.93;;;;;;;-145.18;100.00;46650.63;5050759;28;20533;-72
2022/07/21 05:20:24;;;;;;;32.10;21.23;;;;;;;-145.18;100.00;46638.91;5051582;28;20029;-72
2022/07/21 05:22:50;;;;;;;31.43;20.03;;;;;;;-145.18;100.00;46636.94;5051172;28;20080;-73
2022/07/21 05:25:15;;;;;;;31.07;18.83;;;;;;;-145.18;100.00;46635.00;5052064;28;20041;-73
2022/07/21 05:27:41;;;;;;;37.43;21.63;;;;;;;-145.18;100.00;46640.88;5051424;28;20413;-72
2022/07/21 05:30:07;;;;;;;36.07;21.90;;;;;;;-145.18;100.00;46636.94;5051632;28;20044;-73
2022/07/21 05:32:32;;;;;;;38.83;23.23;;;;;;;-145.18;100.00;46638.91;5051249;28;20044;-72
2022/07/21 05:34:57;;;;;;;44.37;26.07;;;;;;;-145.18;100.00;46638.91;5051329;28;20033;-73
2022/07/21 05:37:23;;;;;;;49.80;27.03;;;;;;;-145.18;100.00;46638.91;5051368;28;20037;-72
2022/07/21 05:39:48;;;;;;;50.07;27.30;;;;;;;-145.18;100.00;46652.59;5051152;28;20128;-72
2022/07/21 05:42:13;;;;;;;53.40;28.27;;;;;;;-145.18;100.00;46650.63;5051055;28;20397;-72
2022/07/21 05:44:39;;;;;;;50.93;27.23;;;;;;;-145.18;100.00;46640.88;5051373;28;20128;-72
2022/07/21 05:47:05;;;;;;;50.33;28.03;;;;;;;-145.18;100.00;46638.91;5051024;28;20511;-73
2022/07/21 05:49:31;;;;;;;50.53;28.33;;;;;;;-145.18;100.00;46642.81;5051050;28;20160;-73
2022/07/21 05:51:56;;;;;;;54.33;28.80;;;;;;;-145.18;100.00;46640.88;5050934;28;20104;-72
2022/07/21 05:54:21;;;;;;;47.50;29.10;;;;;;;-145.18;100.00;46638.91;5050804;28;20044;-72
2022/07/21 05:56:47;;;;;;;48.00;28.60;;;;;;;-145.18;100.00;46638.91;5050779;28;20068;-72
2022/07/21 05:59:12;;;;;;;58.20;29.73;;;;;;;-145.18;100.00;46642.81;5050687;28;20064;-72
2022/07/21 06:01:37;;;;;;;53.70;30.33;;;;;;;-145.18;100.00;46640.88;5051122;28;20045;-72
2022/07/21 06:04:03;;;;;;;52.87;28.73;;;;;;;-145.18;100.00;46638.91;5050270;28;20049;-72
2022/07/21 06:06:28;;;;;;;58.73;29.67;;;;;;;-145.18;100.00;46640.88;5051089;28;20025;-72
2022/07/21 06:08:55;;;;;;;47.80;27.27;;;;;;;-145.18;100.00;46650.63;5050453;28;20033;-72
2022/07/21 06:11:21;;;;;;;52.43;27.90;;;;;;;-145.18;100.00;46636.94;5050840;28;20472;-72
2022/07/21 06:13:47;;;;;;;48.67;27.10;;;;;;;-145.18;100.00;46642.81;5050267;28;20053;-72
2022/07/21 06:16:12;;;;;;;53.53;28.53;;;;;;;-145.18;100.00;46642.81;5050274;28;20064;-72
2022/07/21 06:18:37;;;;;;;53.93;28.47;;;;;;;-145.18;100.00;46638.91;5050191;28;20120;-72
2022/07/21 06:21:04;;;;;;;61.40;31.13;;;;;;;-145.18;100.00;46640.88;5050534;28;20037;-72
2022/07/21 06:23:30;;;;;;;55.37;28.53;;;;;;;-145.18;100.00;46636.94;5049721;28;20083;-71
2022/07/21 06:25:56;;;;;;;46.87;27.40;;;;;;;-145.18;100.00;46642.81;5049053;28;20033;-72
2022/07/21 06:28:21;;;;;;;48.97;27.73;;;;;;;-145.18;100.00;46640.88;5050129;28;20397;-72
2022/07/21 06:30:47;;;;;;;56.27;30.23;;;;;;;-145.18;100.00;46635.00;5050250;28;20409;-72
2022/07/21 06:33:13;;;;;;;55.13;28.53;;;;;;;-145.18;100.00;46638.91;5051050;28;20029;-72
2022/07/21 06:35:39;;;;;;;48.03;29.13;;;;;;;-145.18;100.00;46638.91;5050619;28;20021;-72
2022/07/21 06:38:04;;;;;;;50.73;28.43;;;;;;;-145.18;100.00;46636.94;5041538;28;20061;-72
2022/07/21 06:40:29;;;;;;;50.57;27.60;;;;;;;-145.18;100.00;46633.06;5030449;28;20033;-72
2022/07/21 06:42:55;;;;;;;46.37;27.03;;;;;;;-145.18;100.00;46638.91;5045088;28;20025;-72
2022/07/21 06:45:21;;;;;;;54.27;27.17;;;;;;;-145.18;100.00;46640.88;5050320;28;20119;-72
2022/07/21 06:47:47;;;;;;;46.43;26.90;;;;;;;-145.18;100.00;46635.00;5049715;28;20036;-72
2022/07/21 06:50:12;;;;;;;49.20;27.23;;;;;;;-145.18;100.00;46640.88;5050524;28;20033;-72
2022/07/21 06:52:38;;;;;;;44.77;26.57;;;;;;;-145.18;100.00;46638.91;5049904;28;20396;-71
2022/07/21 06:55:05;;;;;;;47.40;26.93;;;;;;;-145.18;100.00;46638.91;5050348;28;20044;-72
2022/07/21 06:57:31;;;;;;;40.57;26.00;;;;;;;-145.18;100.00;46636.94;5050050;28;20040;-72
2022/07/21 06:59:56;;;;;;;50.90;26.37;;;;;;;-145.18;100.00;46640.88;5049675;28;20040;-72
2022/07/21 07:02:21;;;;;;;45.10;26.27;;;;;;;-145.18;100.00;46635.00;5049832;28;20080;-72
2022/07/21 07:04:47;;;;;;;43.90;26.47;;;;;;;-145.18;100.00;46633.06;5049505;28;20064;-72
2022/07/21 07:07:12;;;;;;;44.00;28.00;;;;;;;-145.18;100.00;46640.88;5049488;28;20044;-72
2022/07/21 07:09:38;;;;;;;48.33;28.40;;;;;;;-145.18;100.00;46640.88;5049723;28;20585;-72
2022/07/21 07:12:05;;;;;;;43.77;26.17;;;;;;;-145.18;100.00;46633.06;5049620;28;20025;-72
2022/07/21 07:14:31;;;;;;;38.80;27.67;;;;;;;-145.18;100.00;46638.91;5049174;28;20033;-72
2022/07/21 07:16:57;;;;;;;38.90;27.13;;;;;;;-145.18;100.00;46635.00;5049777;28;20500;-72
2022/07/21 07:19:22;;;;;;;47.03;28.83;;;;;;;-145.18;100.00;46640.88;5049746;28;20061;-72
2022/07/21 07:21:48;;;;;;;54.00;31.47;;;;;;;-145.18;100.00;46636.94;5049880;28;20394;-71
2022/07/21 07:24:13;;;;;;;47.23;28.63;;;;;;;-145.18;100.00;46635.00;5049649;28;20080;-72
2022/07/21 07:26:39;;;;;;;47.90;28.67;;;;;;;-145.18;100.00;46636.94;5049881;28;20033;-71
2022/07/21 07:29:04;;;;;;;45.83;29.33;;;;;;;-145.18;100.00;46631.09;5050683;28;20033;-72
2022/07/21 07:31:30;;;;;;;49.53;30.87;;;;;;;-145.18;100.00;46633.06;5054093;28;20040;-72
2022/07/21 07:33:57;;;;;;;47.23;30.30;;;;;;;-145.18;100.00;46633.06;5053393;28;20453;-72
2022/07/21 07:36:23;;;;;;;46.73;29.93;;;;;;;-145.18;100.00;46635.00;5053872;28;20057;-72
2022/07/21 07:38:49;;;;;;;46.93;29.80;;;;;;;-145.18;100.00;46633.06;5053494;28;20068;-71
2022/07/21 07:41:14;;;;;;;45.40;31.57;;;;;;;-145.18;100.00;46633.06;5052750;28;20563;-71
2022/07/21 07:43:39;;;;;;;49.60;31.07;;;;;;;-145.18;100.00;46633.06;5053540;28;20033;-71
2022/07/21 07:46:06;;;;;;;49.43;30.90;;;;;;;-145.18;100.00;46631.09;5053550;28;20068;-72
2022/07/21 07:48:31;;;;;;;43.40;30.60;;;;;;;-145.18;100.00;46631.09;5053398;28;20622;-71
2022/07/21 07:50:56;;;;;;;47.10;31.17;;;;;;;-145.18;100.00;46631.09;5053545;28;20056;-71
2022/07/21 07:53:22;;;;;;;42.07;29.07;;;;;;;-145.18;100.00;46631.09;5053055;28;20037;-71
2022/07/21 07:55:47;;;;;;;41.73;27.90;;;;;;;-145.18;100.00;46633.06;5053597;28;20497;-71
2022/07/21 07:58:13;;;;;;;47.10;29.07;;;;;;;-145.18;100.00;46629.13;5052998;28;20378;-71
2022/07/21 08:00:39;;;;;;;41.33;28.20;;;;;;;-145.18;100.00;46629.13;5053505;28;20041;-71
2022/07/21 08:03:05;;;;;;;38.47;26.77;;;;;;;-145.18;100.00;46627.19;5051931;28;20564;-71
2022/07/21 08:05:30;;;;;;;43.57;28.63;;;;;;;-145.18;100.00;46629.13;5052292;28;20178;-71
2022/07/21 08:07:56;;;;;;;36.83;26.23;;;;;;;-145.18;100.00;46625.22;5052094;28;20493;-70
2022/07/21 08:10:21;;;;;;;40.50;28.80;;;;;;;-145.18;100.00;46627.19;5052857;28;20041;-71
2022/07/21 08:12:47;;;;;;;39.77;27.70;;;;;;;-145.18;100.00;46629.13;5052874;28;20025;-70
2022/07/21 08:15:12;;;;;;;31.70;23.67;;;;;;;-145.18;100.00;46625.22;5051920;28;20389;-70
2022/07/21 08:17:38;;;;;;;32.23;23.50;;;;;;;-145.18;100.00;46627.19;5053149;28;20056;-70
2022/07/21 08:20:05;;;;;;;34.73;22.50;;;;;;;-145.18;100.00;46627.19;5052403;28;20033;-70
2022/07/21 08:22:30;;;;;;;30.03;21.67;;;;;;;-145.18;100.00;46623.28;5052843;28;20033;-71
2022/07/21 08:24:56;;;;;;;25.03;20.57;;;;;;;-145.18;100.00;46627.19;5052181;28;20116;-71
2022/07/21 08:27:21;;;;;;;26.33;16.37;;;;;;;-145.18;100.00;46625.22;5052807;28;20039;-71
2022/07/21 08:29:46;;;;;;;21.13;14.97;;;;;;;-145.18;100.00;46625.22;5052336;28;20098;-71
2022/07/21 08:32:12;;;;;;;19.83;13.73;;;;;;;-145.18;100.00;46625.22;5052365;28;20037;-71
2022/07/21 08:34:37;;;;;;;17.20;13.87;;;;;;;-145.18;100.00;46627.19;5050651;28;20489;-70
2022/07/21 08:37:04;;;;;;;19.17;14.37;;;;;;;-145.18;100.00;46627.19;5052409;28;20037;-71
2022/07/21 08:39:29;;;;;;;26.90;17.13;;;;;;;-145.18;100.00;46623.28;5051942;28;20170;-71
2022/07/21 08:41:55;;;;;;;23.03;17.73;;;;;;;-145.18;100.00;46625.22;5051210;28;20033;-71
2022/07/21 08:44:21;;;;;;;27.03;18.80;;;;;;;-145.18;100.00;46627.19;5052129;28;20083;-71
2022/07/21 08:46:50;;;;;;;28.77;19.37;;;;;;;-145.18;100.00;46627.19;5052356;28;20489;-70
2022/07/21 08:49:20;;;;;;;24.20;20.10;;;;;;;-145.18;100.00;46623.28;5051814;28;20027;-70
2022/07/21 08:51:46;;;;;;;27.53;21.00;;;;;;;-145.18;100.00;46621.31;5052283;28;20057;-70
2022/07/21 08:54:11;;;;;;;25.70;19.70;;;;;;;-145.18;100.00;46623.28;5051793;28;20052;-70
2022/07/21 08:56:37;;;;;;;24.13;19.77;;;;;;;-145.18;100.00;46627.19;5052244;28;20064;-70
2022/07/21 08:59:03;;;;;;;26.93;20.17;;;;;;;-145.18;100.00;46584.22;5051240;28;20043;-70
2022/07/21 09:01:29;;;;;;;26.10;18.27;;;;;;;-145.18;100.00;46582.25;5050803;28;20482;-70
2022/07/21 09:03:54;;;;;;;23.60;18.07;;;;;;;-145.18;100.00;46586.16;5051176;28;20071;-70
2022/07/21 09:06:21;;;;;;;22.07;16.60;;;;;;;-145.18;100.00;46584.22;5052058;28;20040;-70
2022/07/21 09:08:50;;;;;;;25.30;17.17;;;;;;;-145.18;100.00;46582.25;5051173;28;20525;-70
2022/07/21 09:11:22;;;;;;;17.47;13.73;;;;;;;-145.18;100.00;46584.22;5051789;28;20036;-70
2022/07/21 09:14:09;;;;;;;21.73;14.77;;;;;;;-145.18;100.00;46582.25;5051628;28;20024;-71
2022/07/21 09:16:43;;;;;;;16.77;14.77;;;;;;;-145.18;100.00;46578.34;5051667;28;20056;-71
2022/07/21 09:19:35;;;;;;;20.60;14.73;;;;;;;-145.18;100.00;46582.25;5051331;28;20039;-70
2022/07/21 09:22:05;;;;;;;18.40;13.23;;;;;;;-145.18;100.00;46586.16;5051386;28;20017;-70
2022/07/21 09:24:38;;;;;;;18.20;13.10;;;;;;;-145.18;100.00;46582.25;5051285;28;20466;-71
2022/07/21 09:27:09;;;;;;;17.57;13.20;;;;;;;-145.18;100.00;46582.25;5051262;28;20033;-70
2022/07/21 09:29:38;;;;;;;15.40;11.17;;;;;;;-145.18;100.00;46580.31;5051327;28;20556;-70
2022/07/21 09:32:13;;;;;;;17.03;10.93;;;;;;;-145.18;100.00;46584.22;5051446;28;20021;-70
2022/07/21 09:34:38;;;;;;;16.00;10.47;;;;;;;-145.18;100.00;46584.22;5051110;28;20021;-70
2022/07/21 09:37:06;;;;;;;9.57;8.47;;;;;;;-145.18;100.00;46582.25;5051661;28;20037;-70
2022/07/21 09:39:41;;;;;;;11.37;7.23;;;;;;;-145.18;100.00;46584.22;5051513;28;20055;-71
2022/07/21 09:42:17;;;;;;;8.77;5.68;;;;;;;-145.18;100.00;46584.22;5051559;28;20040;-70
2022/07/21 09:44:49;;;;;;;7.77;4.73;;;;;;;-145.18;100.00;46586.16;5051341;28;20108;-71
2022/07/21 09:47:17;;;;;;;11.17;6.00;;;;;;;-145.18;100.00;46584.22;5051041;28;20021;-71
2022/07/21 09:49:43;;;;;;;12.63;7.07;;;;;;;-145.18;100.00;46625.22;5050924;28;20049;-71
2022/07/21 09:52:34;;;;;;;12.33;7.17;;;;;;;-145.18;100.00;46625.22;5050982;28;20055;-71
2022/07/21 09:55:11;;;;;;;8.17;6.47;;;;;;;-145.18;100.00;46623.28;5051000;28;20044;-71
2022/07/21 09:57:38;;;;;;;12.33;7.20;;;;;;;-145.18;100.00;46584.22;5038948;28;20103;-71
2022/07/21 10:00:12;;;;;;;9.03;7.00;;;;;;;-145.18;100.00;46582.25;5039037;28;20119;-71
2022/07/21 10:02:38;;;;;;;15.15;8.77;;;;;;;-145.18;100.00;46584.22;5039897;28;20048;-71
2022/07/21 10:05:05;;;;;;;14.10;8.23;;;;;;;-145.18;100.00;46588.13;5050590;28;20096;-71
2022/07/21 10:07:32;;;;;;;14.13;9.07;;;;;;;-145.18;100.00;46580.31;5050854;28;20033;-72
2022/07/21 10:09:58;;;;;;;15.50;8.83;;;;;;;-145.18;100.00;46586.16;5050447;28;20035;-72
2022/07/21 10:12:25;;;;;;;14.47;9.13;;;;;;;-145.18;100.00;46584.22;5051455;28;20104;-72
2022/07/21 10:14:51;;;;;;;15.87;8.40;;;;;;;-145.18;100.00;46582.25;5049425;28;20397;-72
2022/07/21 10:17:18;;;;;;;10.73;8.30;;;;;;;-145.18;100.00;46584.22;5050943;28;20029;-72
2022/07/21 10:20:12;;;;;;;14.30;8.70;;;;;;;-145.18;100.00;46584.22;5050678;28;20033;-71
2022/07/21 10:22:56;;;;;;;13.73;9.13;;;;;;;-145.18;100.00;46584.22;5050584;28;20048;-72
2022/07/21 10:25:23;;;;;;;13.03;8.30;;;;;;;-145.18;100.00;46584.22;5043406;28;20104;-72
2022/07/21 10:28:10;;;;;;;12.30;8.13;;;;;;;-145.18;100.00;46586.16;5050912;28;20519;-72
2022/07/21 10:30:44;;;;;;;12.97;9.03;;;;;;;-145.18;100.00;46590.06;5050508;28;20536;-72
2022/07/21 10:33:11;;;;;;;17.13;9.40;;;;;;;-145.18;100.00;46633.06;5050467;28;20568;-72
2022/07/21 10:35:45;;;;;;;12.23;8.30;;;;;;;-145.18;100.00;46633.06;5050915;28;20033;-71
2022/07/21 10:38:31;;;;;;;13.27;9.70;;;;;;;-145.18;100.00;46631.09;5050566;28;20024;-73
2022/07/21 10:41:01;;;;;;;16.43;13.07;;;;;;;-145.18;100.00;46631.09;5050723;28;20075;-71
2022/07/21 10:43:27;;;;;;;23.77;14.87;;;;;;;-145.18;100.00;46636.94;5050256;28;20041;-70
2022/07/21 10:45:54;;;;;;;24.20;16.53;;;;;;;-145.18;100.00;46636.94;5050517;28;20028;-70
2022/07/21 10:48:37;;;;;;;21.00;16.50;;;;;;;-145.18;100.00;46633.06;5049587;28;20029;-70
2022/07/21 10:51:11;;;;;;;26.60;16.23;;;;;;;-145.18;100.00;46633.06;5050345;28;20033;-70
2022/07/21 10:53:37;;;;;;;18.70;14.80;;;;;;;-145.18;100.00;46629.13;5050138;28;20048;-70
2022/07/21 10:56:03;;;;;;;18.60;13.57;;;;;;;-145.18;100.00;46633.06;5050427;28;20440;-70
2022/07/21 10:58:31;;;;;;;20.83;12.50;;;;;;;-145.18;100.00;46633.06;5049596;28;20427;-70